sensor_id;sensor_type;location;lat;lon;timestamp;temperature;humidity
40023;DHT22;25713;-35.352;149.036;2024-01-30T00:02:25;22.20;86.90
40023;DHT22;25713;-35.352;149.036;2024-01-30T00:04:58;22.20;86.00
40023;DHT22;25713;-35.352;149.036;2024-01-30T00:07:28;22.20;86.00
40023;DHT22;25713;-35.352;149.036;2024-01-30T00:09:58;22.30;86.50
40023;DHT22;25713;-35.352;149.036;2024-01-30T00:12:27;22.30;87.60
40023;DHT22;25713;-35.352;149.036;2024-01-30T00:14:57;22.30;88.00
40023;DHT22;25713;-35.352;149.036;2024-01-30T00:17:26;22.30;88.10
40023;DHT22;25713;-35.352;149.036;2024-01-30T00:19:58;22.30;87.60
40023;DHT22;25713;-35.352;149.036;2024-01-30T00:22:28;22.40;87.00
40023;DHT22;25713;-35.352;149.036;2024-01-30T00:24:57;22.40;87.80
40023;DHT22;25713;-35.352;149.036;2024-01-30T00:27:27;22.40;88.70
40023;DHT22;25713;-35.352;149.036;2024-01-30T00:29:56;22.40;88.20
40023;DHT22;25713;-35.352;149.036;2024-01-30T00:32:26;22.40;87.30
40023;DHT22;25713;-35.352;149.036;2024-01-30T00:34:57;22.50;87.30
40023;DHT22;25713;-35.352;149.036;2024-01-30T00:37:26;22.50;87.60
40023;DHT22;25713;-35.352;149.036;2024-01-30T00:39:56;22.50;87.10
40023;DHT22;25713;-35.352;149.036;2024-01-30T00:42:25;22.60;88.10
40023;DHT22;25713;-35.352;149.036;2024-01-30T00:44:55;22.60;87.90
40023;DHT22;25713;-35.352;149.036;2024-01-30T00:47:24;22.50;87.10
40023;DHT22;25713;-35.352;149.036;2024-01-30T00:49:55;22.50;85.70
40023;DHT22;25713;-35.352;149.036;2024-01-30T00:52:26;22.60;86.80
40023;DHT22;25713;-35.352;149.036;2024-01-30T00:54:56;22.60;86.90
40023;DHT22;25713;-35.352;149.036;2024-01-30T00:57:26;22.60;87.90
40023;DHT22;25713;-35.352;149.036;2024-01-30T00:59:56;22.80;86.70
40023;DHT22;25713;-35.352;149.036;2024-01-30T01:02:25;22.70;87.50
40023;DHT22;25713;-35.352;149.036;2024-01-30T01:04:55;22.80;87.40
40023;DHT22;25713;-35.352;149.036;2024-01-30T01:07:26;22.80;87.30
40023;DHT22;25713;-35.352;149.036;2024-01-30T01:09:55;22.90;86.40
40023;DHT22;25713;-35.352;149.036;2024-01-30T01:12:25;22.90;88.00
40023;DHT22;25713;-35.352;149.036;2024-01-30T01:14:55;22.90;87.10
40023;DHT22;25713;-35.352;149.036;2024-01-30T01:17:24;22.90;87.50
40023;DHT22;25713;-35.352;149.036;2024-01-30T01:19:54;22.90;88.40
40023;DHT22;25713;-35.352;149.036;2024-01-30T01:22:25;22.90;88.60
40023;DHT22;25713;-35.352;149.036;2024-01-30T01:24:55;22.90;88.30
40023;DHT22;25713;-35.352;149.036;2024-01-30T01:27:24;23.00;88.70
40023;DHT22;25713;-35.352;149.036;2024-01-30T01:29:54;23.00;88.80
40023;DHT22;25713;-35.352;149.036;2024-01-30T01:32:24;23.00;88.80
40023;DHT22;25713;-35.352;149.036;2024-01-30T01:34:54;23.00;89.00
40023;DHT22;25713;-35.352;149.036;2024-01-30T01:37:23;23.10;88.10
40023;DHT22;25713;-35.352;149.036;2024-01-30T01:39:55;23.10;88.80
40023;DHT22;25713;-35.352;149.036;2024-01-30T01:42:25;23.10;89.00
40023;DHT22;25713;-35.352;149.036;2024-01-30T01:44:54;23.10;89.10
40023;DHT22;25713;-35.352;149.036;2024-01-30T01:47:24;23.20;89.50
40023;DHT22;25713;-35.352;149.036;2024-01-30T01:49:53;23.20;89.00
40023;DHT22;25713;-35.352;149.036;2024-01-30T01:52:23;23.20;88.80
40023;DHT22;25713;-35.352;149.036;2024-01-30T01:54:57;23.20;89.30
40023;DHT22;25713;-35.352;149.036;2024-01-30T01:57:26;23.30;88.40
40023;DHT22;25713;-35.352;149.036;2024-01-30T01:59:56;23.30;89.10
40023;DHT22;25713;-35.352;149.036;2024-01-30T02:02:26;23.30;90.00
40023;DHT22;25713;-35.352;149.036;2024-01-30T02:04:56;23.30;90.10
40023;DHT22;25713;-35.352;149.036;2024-01-30T02:07:26;23.30;90.30
40023;DHT22;25713;-35.352;149.036;2024-01-30T02:09:58;23.40;90.50
40023;DHT22;25713;-35.352;149.036;2024-01-30T02:12:28;23.40;90.20
40023;DHT22;25713;-35.352;149.036;2024-01-30T02:14:57;23.40;89.90
40023;DHT22;25713;-35.352;149.036;2024-01-30T02:17:27;23.30;90.00
40023;DHT22;25713;-35.352;149.036;2024-01-30T02:19:56;23.40;90.00
40023;DHT22;25713;-35.352;149.036;2024-01-30T02:22:30;23.30;90.30
40023;DHT22;25713;-35.352;149.036;2024-01-30T02:25:00;23.40;90.50
40023;DHT22;25713;-35.352;149.036;2024-01-30T02:27:30;23.40;90.40
40023;DHT22;25713;-35.352;149.036;2024-01-30T02:30:00;23.40;90.30
40023;DHT22;25713;-35.352;149.036;2024-01-30T02:32:29;23.50;90.40
40023;DHT22;25713;-35.352;149.036;2024-01-30T02:34:59;23.60;90.50
40023;DHT22;25713;-35.352;149.036;2024-01-30T02:37:30;23.60;90.00
40023;DHT22;25713;-35.352;149.036;2024-01-30T02:40:00;23.60;90.20
40023;DHT22;25713;-35.352;149.036;2024-01-30T02:42:29;23.60;90.30
40023;DHT22;25713;-35.352;149.036;2024-01-30T02:44:59;23.50;90.30
40023;DHT22;25713;-35.352;149.036;2024-01-30T02:47:28;23.40;90.40
40023;DHT22;25713;-35.352;149.036;2024-01-30T02:49:58;23.50;90.30
40023;DHT22;25713;-35.352;149.036;2024-01-30T02:52:30;23.50;90.60
40023;DHT22;25713;-35.352;149.036;2024-01-30T02:55:00;23.50;90.80
40023;DHT22;25713;-35.352;149.036;2024-01-30T02:57:29;23.60;90.60
40023;DHT22;25713;-35.352;149.036;2024-01-30T02:59:59;23.80;90.50
40023;DHT22;25713;-35.352;149.036;2024-01-30T03:02:29;23.80;90.40
40023;DHT22;25713;-35.352;149.036;2024-01-30T03:04:58;23.80;90.40
40023;DHT22;25713;-35.352;149.036;2024-01-30T03:07:30;23.80;90.40
40023;DHT22;25713;-35.352;149.036;2024-01-30T03:10:00;23.70;90.50
40023;DHT22;25713;-35.352;149.036;2024-01-30T03:12:30;23.70;90.50
40023;DHT22;25713;-35.352;149.036;2024-01-30T03:15:00;23.60;90.70
40023;DHT22;25713;-35.352;149.036;2024-01-30T03:17:29;23.70;90.80
40023;DHT22;25713;-35.352;149.036;2024-01-30T03:19:59;23.70;90.90
40023;DHT22;25713;-35.352;149.036;2024-01-30T03:22:32;23.70;91.00
40023;DHT22;25713;-35.352;149.036;2024-01-30T03:25:02;23.70;91.00
40023;DHT22;25713;-35.352;149.036;2024-01-30T03:27:32;23.70;91.00
40023;DHT22;25713;-35.352;149.036;2024-01-30T03:30:01;23.70;91.00
40023;DHT22;25713;-35.352;149.036;2024-01-30T03:32:31;23.80;91.00
40023;DHT22;25713;-35.352;149.036;2024-01-30T03:35:01;23.80;90.80
40023;DHT22;25713;-35.352;149.036;2024-01-30T03:37:35;23.90;91.10
40023;DHT22;25713;-35.352;149.036;2024-01-30T03:40:06;24.00;90.90
40023;DHT22;25713;-35.352;149.036;2024-01-30T03:42:36;24.00;90.80
40023;DHT22;25713;-35.352;149.036;2024-01-30T03:45:07;24.10;90.90
40023;DHT22;25713;-35.352;149.036;2024-01-30T03:47:37;24.20;90.90
40023;DHT22;25713;-35.352;149.036;2024-01-30T03:50:07;24.20;90.60
40023;DHT22;25713;-35.352;149.036;2024-01-30T03:52:40;24.10;90.50
40023;DHT22;25713;-35.352;149.036;2024-01-30T03:55:10;24.10;90.70
40023;DHT22;25713;-35.352;149.036;2024-01-30T03:57:39;24.10;90.60
40023;DHT22;25713;-35.352;149.036;2024-01-30T04:00:10;24.10;90.80
40023;DHT22;25713;-35.352;149.036;2024-01-30T04:02:42;24.10;91.10
40023;DHT22;25713;-35.352;149.036;2024-01-30T04:05:12;24.10;91.20
40023;DHT22;25713;-35.352;149.036;2024-01-30T04:07:43;24.20;91.10
40023;DHT22;25713;-35.352;149.036;2024-01-30T04:10:13;24.20;91.50
40023;DHT22;25713;-35.352;149.036;2024-01-30T04:12:42;24.20;91.30
40023;DHT22;25713;-35.352;149.036;2024-01-30T04:15:12;24.20;91.20
40023;DHT22;25713;-35.352;149.036;2024-01-30T04:17:42;24.30;91.30
40023;DHT22;25713;-35.352;149.036;2024-01-30T04:20:14;24.30;91.10
40023;DHT22;25713;-35.352;149.036;2024-01-30T04:22:47;24.20;91.00
40023;DHT22;25713;-35.352;149.036;2024-01-30T04:25:17;24.20;91.00
40023;DHT22;25713;-35.352;149.036;2024-01-30T04:27:47;24.30;91.00
40023;DHT22;25713;-35.352;149.036;2024-01-30T04:30:17;24.20;91.00
40023;DHT22;25713;-35.352;149.036;2024-01-30T04:32:46;24.20;91.00
40023;DHT22;25713;-35.352;149.036;2024-01-30T04:35:16;24.20;91.00
40023;DHT22;25713;-35.352;149.036;2024-01-30T04:37:47;24.20;91.10
40023;DHT22;25713;-35.352;149.036;2024-01-30T04:40:17;24.20;91.10
40023;DHT22;25713;-35.352;149.036;2024-01-30T04:42:46;24.20;91.60
40023;DHT22;25713;-35.352;149.036;2024-01-30T04:45:16;24.20;91.60
40023;DHT22;25713;-35.352;149.036;2024-01-30T04:47:46;24.30;91.40
40023;DHT22;25713;-35.352;149.036;2024-01-30T04:50:16;24.40;91.30
40023;DHT22;25713;-35.352;149.036;2024-01-30T04:52:47;24.50;91.40
40023;DHT22;25713;-35.352;149.036;2024-01-30T04:55:17;24.60;91.20
40023;DHT22;25713;-35.352;149.036;2024-01-30T04:57:46;24.50;91.00
40023;DHT22;25713;-35.352;149.036;2024-01-30T05:00:16;24.50;91.00
40023;DHT22;25713;-35.352;149.036;2024-01-30T05:02:46;24.50;91.00
40023;DHT22;25713;-35.352;149.036;2024-01-30T05:05:16;24.50;91.00
40023;DHT22;25713;-35.352;149.036;2024-01-30T05:07:49;24.50;90.90
40023;DHT22;25713;-35.352;149.036;2024-01-30T05:10:18;24.40;90.90
40023;DHT22;25713;-35.352;149.036;2024-01-30T05:12:48;24.30;91.00
40023;DHT22;25713;-35.352;149.036;2024-01-30T05:15:17;24.30;91.20
40023;DHT22;25713;-35.352;149.036;2024-01-30T05:17:47;24.40;91.50
40023;DHT22;25713;-35.352;149.036;2024-01-30T05:20:17;24.50;91.10
40023;DHT22;25713;-35.352;149.036;2024-01-30T05:22:48;24.50;91.60
40023;DHT22;25713;-35.352;149.036;2024-01-30T05:25:18;24.50;91.20
40023;DHT22;25713;-35.352;149.036;2024-01-30T05:27:47;24.60;91.20
40023;DHT22;25713;-35.352;149.036;2024-01-30T05:30:17;24.60;91.10
40023;DHT22;25713;-35.352;149.036;2024-01-30T05:32:46;24.60;91.00
40023;DHT22;25713;-35.352;149.036;2024-01-30T05:35:16;24.60;90.90
40023;DHT22;25713;-35.352;149.036;2024-01-30T05:37:47;24.60;90.90
40023;DHT22;25713;-35.352;149.036;2024-01-30T05:40:17;24.60;91.00
40023;DHT22;25713;-35.352;149.036;2024-01-30T05:42:47;24.60;91.00
40023;DHT22;25713;-35.352;149.036;2024-01-30T05:45:16;24.60;91.40
40023;DHT22;25713;-35.352;149.036;2024-01-30T05:47:46;24.60;91.10
40023;DHT22;25713;-35.352;149.036;2024-01-30T05:50:15;24.70;91.10
40023;DHT22;25713;-35.352;149.036;2024-01-30T05:52:45;24.70;91.10
40023;DHT22;25713;-35.352;149.036;2024-01-30T05:55:16;24.70;90.90
40023;DHT22;25713;-35.352;149.036;2024-01-30T05:57:46;24.70;91.10
40023;DHT22;25713;-35.352;149.036;2024-01-30T06:00:16;24.70;91.00
40023;DHT22;25713;-35.352;149.036;2024-01-30T06:02:46;24.70;91.00
40023;DHT22;25713;-35.352;149.036;2024-01-30T06:05:16;24.70;91.00
40023;DHT22;25713;-35.352;149.036;2024-01-30T06:07:45;24.70;90.90
40023;DHT22;25713;-35.352;149.036;2024-01-30T06:10:17;24.60;91.00
40023;DHT22;25713;-35.352;149.036;2024-01-30T06:12:46;24.70;91.10
40023;DHT22;25713;-35.352;149.036;2024-01-30T06:15:15;24.70;91.30
40023;DHT22;25713;-35.352;149.036;2024-01-30T06:17:45;24.70;91.40
40023;DHT22;25713;-35.352;149.036;2024-01-30T06:20:15;24.70;91.10
40023;DHT22;25713;-35.352;149.036;2024-01-30T06:22:44;24.80;91.00
40023;DHT22;25713;-35.352;149.036;2024-01-30T06:25:16;24.80;91.00
40023;DHT22;25713;-35.352;149.036;2024-01-30T06:27:46;24.80;91.00
40023;DHT22;25713;-35.352;149.036;2024-01-30T06:30:15;24.80;91.00
40023;DHT22;25713;-35.352;149.036;2024-01-30T06:32:45;24.80;90.90
40023;DHT22;25713;-35.352;149.036;2024-01-30T06:35:14;24.70;90.90
40023;DHT22;25713;-35.352;149.036;2024-01-30T06:37:44;24.80;90.90
40023;DHT22;25713;-35.352;149.036;2024-01-30T06:40:15;24.80;90.80
40023;DHT22;25713;-35.352;149.036;2024-01-30T06:42:45;24.80;91.10
40023;DHT22;25713;-35.352;149.036;2024-01-30T06:45:15;24.80;90.80
40023;DHT22;25713;-35.352;149.036;2024-01-30T06:47:44;24.80;90.80
40023;DHT22;25713;-35.352;149.036;2024-01-30T06:50:14;24.80;90.80
40023;DHT22;25713;-35.352;149.036;2024-01-30T06:52:43;24.70;90.90
40023;DHT22;25713;-35.352;149.036;2024-01-30T06:55:13;24.70;91.10
40023;DHT22;25713;-35.352;149.036;2024-01-30T06:57:44;24.60;91.00
40023;DHT22;25713;-35.352;149.036;2024-01-30T07:00:14;24.60;91.00
40023;DHT22;25713;-35.352;149.036;2024-01-30T07:02:44;24.60;91.10
40023;DHT22;25713;-35.352;149.036;2024-01-30T07:05:13;24.60;91.20
40023;DHT22;25713;-35.352;149.036;2024-01-30T07:07:43;24.60;91.10
40023;DHT22;25713;-35.352;149.036;2024-01-30T07:10:13;24.60;91.30
40023;DHT22;25713;-35.352;149.036;2024-01-30T07:12:44;24.60;91.10
40023;DHT22;25713;-35.352;149.036;2024-01-30T07:15:14;24.50;91.00
40023;DHT22;25713;-35.352;149.036;2024-01-30T07:17:43;24.50;91.00
40023;DHT22;25713;-35.352;149.036;2024-01-30T07:20:13;24.50;91.10
40023;DHT22;25713;-35.352;149.036;2024-01-30T07:22:43;24.60;91.00
40023;DHT22;25713;-35.352;149.036;2024-01-30T07:25:12;24.60;91.10
40023;DHT22;25713;-35.352;149.036;2024-01-30T07:27:44;24.60;91.00
40023;DHT22;25713;-35.352;149.036;2024-01-30T07:30:14;24.60;91.00
40023;DHT22;25713;-35.352;149.036;2024-01-30T07:32:43;24.60;91.10
40023;DHT22;25713;-35.352;149.036;2024-01-30T07:35:13;24.60;91.00
40023;DHT22;25713;-35.352;149.036;2024-01-30T07:37:43;24.60;91.00
40023;DHT22;25713;-35.352;149.036;2024-01-30T07:40:12;24.60;91.00
40023;DHT22;25713;-35.352;149.036;2024-01-30T07:42:44;24.60;91.30
40023;DHT22;25713;-35.352;149.036;2024-01-30T07:45:13;24.60;91.10
40023;DHT22;25713;-35.352;149.036;2024-01-30T07:47:43;24.60;91.30
40023;DHT22;25713;-35.352;149.036;2024-01-30T07:50:12;24.60;91.40
40023;DHT22;25713;-35.352;149.036;2024-01-30T07:52:42;24.60;91.30
40023;DHT22;25713;-35.352;149.036;2024-01-30T07:55:12;24.70;91.30
40023;DHT22;25713;-35.352;149.036;2024-01-30T07:57:43;24.70;91.40
40023;DHT22;25713;-35.352;149.036;2024-01-30T08:00:14;24.70;91.30
40023;DHT22;25713;-35.352;149.036;2024-01-30T08:02:43;24.70;91.30
40023;DHT22;25713;-35.352;149.036;2024-01-30T08:05:13;24.60;91.40
40023;DHT22;25713;-35.352;149.036;2024-01-30T08:07:43;24.70;91.60
40023;DHT22;25713;-35.352;149.036;2024-01-30T08:10:13;24.60;91.40
40023;DHT22;25713;-35.352;149.036;2024-01-30T08:12:45;24.60;91.50
40023;DHT22;25713;-35.352;149.036;2024-01-30T08:15:15;24.50;91.50
40023;DHT22;25713;-35.352;149.036;2024-01-30T08:17:45;24.50;91.50
40023;DHT22;25713;-35.352;149.036;2024-01-30T08:20:14;24.50;91.70
40023;DHT22;25713;-35.352;149.036;2024-01-30T08:22:44;24.50;91.80
40023;DHT22;25713;-35.352;149.036;2024-01-30T08:25:14;24.50;91.70
40023;DHT22;25713;-35.352;149.036;2024-01-30T08:27:45;24.60;91.70
40023;DHT22;25713;-35.352;149.036;2024-01-30T08:30:15;24.60;91.70
40023;DHT22;25713;-35.352;149.036;2024-01-30T08:32:45;24.60;91.60
40023;DHT22;25713;-35.352;149.036;2024-01-30T08:35:14;24.50;91.70
40023;DHT22;25713;-35.352;149.036;2024-01-30T08:37:44;24.60;91.80
40023;DHT22;25713;-35.352;149.036;2024-01-30T08:40:13;24.50;91.90
40023;DHT22;25713;-35.352;149.036;2024-01-30T08:42:44;24.50;91.90
40023;DHT22;25713;-35.352;149.036;2024-01-30T08:45:14;24.50;92.00
40023;DHT22;25713;-35.352;149.036;2024-01-30T08:47:44;24.40;91.90
40023;DHT22;25713;-35.352;149.036;2024-01-30T08:50:13;24.40;92.00
40023;DHT22;25713;-35.352;149.036;2024-01-30T08:52:43;24.40;92.10
40023;DHT22;25713;-35.352;149.036;2024-01-30T08:55:13;24.40;92.10
40023;DHT22;25713;-35.352;149.036;2024-01-30T08:57:44;24.30;92.20
40023;DHT22;25713;-35.352;149.036;2024-01-30T09:00:14;24.40;92.10
40023;DHT22;25713;-35.352;149.036;2024-01-30T09:02:44;24.30;92.10
40023;DHT22;25713;-35.352;149.036;2024-01-30T09:05:14;24.30;92.10
40023;DHT22;25713;-35.352;149.036;2024-01-30T09:07:43;24.30;92.10
40023;DHT22;25713;-35.352;149.036;2024-01-30T09:10:13;24.30;92.20
40023;DHT22;25713;-35.352;149.036;2024-01-30T09:12:44;24.20;92.20
40023;DHT22;25713;-35.352;149.036;2024-01-30T09:15:14;24.20;92.30
40023;DHT22;25713;-35.352;149.036;2024-01-30T09:17:44;24.30;92.40
40023;DHT22;25713;-35.352;149.036;2024-01-30T09:20:13;24.20;92.30
40023;DHT22;25713;-35.352;149.036;2024-01-30T09:22:43;24.20;92.40
40023;DHT22;25713;-35.352;149.036;2024-01-30T09:25:12;24.10;92.40
40023;DHT22;25713;-35.352;149.036;2024-01-30T09:27:44;24.10;92.40
40023;DHT22;25713;-35.352;149.036;2024-01-30T09:30:14;24.10;92.50
40023;DHT22;25713;-35.352;149.036;2024-01-30T09:32:44;24.10;92.50
40023;DHT22;25713;-35.352;149.036;2024-01-30T09:35:14;24.10;92.50
40023;DHT22;25713;-35.352;149.036;2024-01-30T09:37:43;24.00;92.50
40023;DHT22;25713;-35.352;149.036;2024-01-30T09:40:13;24.00;92.50
40023;DHT22;25713;-35.352;149.036;2024-01-30T09:42:46;24.00;92.50
40023;DHT22;25713;-35.352;149.036;2024-01-30T09:45:16;24.00;92.50
40023;DHT22;25713;-35.352;149.036;2024-01-30T09:47:47;24.00;92.60
40023;DHT22;25713;-35.352;149.036;2024-01-30T09:50:17;24.00;92.60
40023;DHT22;25713;-35.352;149.036;2024-01-30T09:52:47;24.00;92.60
40023;DHT22;25713;-35.352;149.036;2024-01-30T09:55:17;23.90;92.60
40023;DHT22;25713;-35.352;149.036;2024-01-30T09:57:48;23.90;92.60
40023;DHT22;25713;-35.352;149.036;2024-01-30T10:00:18;23.90;92.60
40023;DHT22;25713;-35.352;149.036;2024-01-30T10:02:48;23.90;92.70
40023;DHT22;25713;-35.352;149.036;2024-01-30T10:05:20;23.90;92.70
40023;DHT22;25713;-35.352;149.036;2024-01-30T10:07:55;23.90;92.80
40023;DHT22;25713;-35.352;149.036;2024-01-30T10:10:26;23.90;92.80
40023;DHT22;25713;-35.352;149.036;2024-01-30T10:12:57;23.80;92.90
40023;DHT22;25713;-35.352;149.036;2024-01-30T10:15:27;23.80;92.90
40023;DHT22;25713;-35.352;149.036;2024-01-30T10:17:57;23.80;93.00
40023;DHT22;25713;-35.352;149.036;2024-01-30T10:20:27;23.80;93.00
40023;DHT22;25713;-35.352;149.036;2024-01-30T10:22:56;23.80;93.00
40023;DHT22;25713;-35.352;149.036;2024-01-30T10:25:26;23.80;93.10
40023;DHT22;25713;-35.352;149.036;2024-01-30T10:27:58;23.70;93.10
40023;DHT22;25713;-35.352;149.036;2024-01-30T10:30:28;23.70;93.10
40023;DHT22;25713;-35.352;149.036;2024-01-30T10:32:58;23.70;93.20
40023;DHT22;25713;-35.352;149.036;2024-01-30T10:35:27;23.70;93.20
40023;DHT22;25713;-35.352;149.036;2024-01-30T10:37:57;23.70;93.20
40023;DHT22;25713;-35.352;149.036;2024-01-30T10:40:29;23.60;93.20
40023;DHT22;25713;-35.352;149.036;2024-01-30T10:43:02;23.60;93.20
40023;DHT22;25713;-35.352;149.036;2024-01-30T10:45:32;23.60;93.20
40023;DHT22;25713;-35.352;149.036;2024-01-30T10:48:05;23.60;93.30
40023;DHT22;25713;-35.352;149.036;2024-01-30T10:50:37;23.60;93.30
40023;DHT22;25713;-35.352;149.036;2024-01-30T10:53:09;23.60;93.30
40023;DHT22;25713;-35.352;149.036;2024-01-30T10:55:40;23.60;93.40
40023;DHT22;25713;-35.352;149.036;2024-01-30T10:58:12;23.60;93.40
40023;DHT22;25713;-35.352;149.036;2024-01-30T11:00:40;23.50;93.40
40023;DHT22;25713;-35.352;149.036;2024-01-30T11:03:11;23.50;93.40
40023;DHT22;25713;-35.352;149.036;2024-01-30T11:05:42;23.50;93.40
40023;DHT22;25713;-35.352;149.036;2024-01-30T11:08:15;23.50;93.40
40023;DHT22;25713;-35.352;149.036;2024-01-30T11:10:56;23.50;93.50
40023;DHT22;25713;-35.352;149.036;2024-01-30T11:13:31;23.50;93.40
40023;DHT22;25713;-35.352;149.036;2024-01-30T11:16:02;23.50;93.40
40023;DHT22;25713;-35.352;149.036;2024-01-30T11:18:32;23.50;93.40
40023;DHT22;25713;-35.352;149.036;2024-01-30T11:21:04;23.50;93.40
40023;DHT22;25713;-35.352;149.036;2024-01-30T11:23:35;23.50;93.40
40023;DHT22;25713;-35.352;149.036;2024-01-30T11:26:05;23.50;93.50
40023;DHT22;25713;-35.352;149.036;2024-01-30T11:28:38;23.50;93.40
40023;DHT22;25713;-35.352;149.036;2024-01-30T11:31:14;23.50;93.50
40023;DHT22;25713;-35.352;149.036;2024-01-30T11:33:55;23.50;93.60
40023;DHT22;25713;-35.352;149.036;2024-01-30T11:36:26;23.50;93.50
40023;DHT22;25713;-35.352;149.036;2024-01-30T11:38:57;23.50;93.50
40023;DHT22;25713;-35.352;149.036;2024-01-30T11:41:27;23.40;93.50
40023;DHT22;25713;-35.352;149.036;2024-01-30T11:44:03;23.40;93.50
40023;DHT22;25713;-35.352;149.036;2024-01-30T11:46:32;23.40;93.60
40023;DHT22;25713;-35.352;149.036;2024-01-30T11:49:02;23.40;93.60
40023;DHT22;25713;-35.352;149.036;2024-01-30T11:51:32;23.40;93.60
40023;DHT22;25713;-35.352;149.036;2024-01-30T11:54:02;23.40;93.50
40023;DHT22;25713;-35.352;149.036;2024-01-30T11:56:32;23.40;93.50
40023;DHT22;25713;-35.352;149.036;2024-01-30T11:59:03;23.30;93.60
40023;DHT22;25713;-35.352;149.036;2024-01-30T12:01:33;23.30;93.60
40023;DHT22;25713;-35.352;149.036;2024-01-30T12:04:02;23.30;93.60
40023;DHT22;25713;-35.352;149.036;2024-01-30T12:06:32;23.30;93.60
40023;DHT22;25713;-35.352;149.036;2024-01-30T12:09:02;23.30;93.60
40023;DHT22;25713;-35.352;149.036;2024-01-30T12:11:32;23.20;93.60
40023;DHT22;25713;-35.352;149.036;2024-01-30T12:14:03;23.20;93.60
40023;DHT22;25713;-35.352;149.036;2024-01-30T12:16:33;23.20;93.60
40023;DHT22;25713;-35.352;149.036;2024-01-30T12:19:02;23.20;93.60
40023;DHT22;25713;-35.352;149.036;2024-01-30T12:21:33;23.20;93.50
40023;DHT22;25713;-35.352;149.036;2024-01-30T12:24:03;23.20;93.60
40023;DHT22;25713;-35.352;149.036;2024-01-30T12:26:33;23.20;93.70
40023;DHT22;25713;-35.352;149.036;2024-01-30T12:29:05;23.20;93.60
40023;DHT22;25713;-35.352;149.036;2024-01-30T12:31:34;23.20;93.60
40023;DHT22;25713;-35.352;149.036;2024-01-30T12:34:04;23.20;93.60
40023;DHT22;25713;-35.352;149.036;2024-01-30T12:36:34;23.20;93.70
40023;DHT22;25713;-35.352;149.036;2024-01-30T12:39:03;23.20;93.70
40023;DHT22;25713;-35.352;149.036;2024-01-30T12:41:33;23.20;93.80
40023;DHT22;25713;-35.352;149.036;2024-01-30T12:44:04;23.20;93.80
40023;DHT22;25713;-35.352;149.036;2024-01-30T12:46:35;23.20;93.80
40023;DHT22;25713;-35.352;149.036;2024-01-30T12:49:04;23.20;93.80
40023;DHT22;25713;-35.352;149.036;2024-01-30T12:51:36;23.10;93.80
40023;DHT22;25713;-35.352;149.036;2024-01-30T12:54:07;23.10;93.80
40023;DHT22;25713;-35.352;149.036;2024-01-30T12:56:36;23.10;93.80
40023;DHT22;25713;-35.352;149.036;2024-01-30T12:59:08;23.10;93.80
40023;DHT22;25713;-35.352;149.036;2024-01-30T13:01:38;23.10;93.80
40023;DHT22;25713;-35.352;149.036;2024-01-30T13:04:07;23.20;93.90
40023;DHT22;25713;-35.352;149.036;2024-01-30T13:06:37;23.20;93.90
40023;DHT22;25713;-35.352;149.036;2024-01-30T13:09:06;23.20;93.90
40023;DHT22;25713;-35.352;149.036;2024-01-30T13:11:36;23.20;93.90
40023;DHT22;25713;-35.352;149.036;2024-01-30T13:14:08;23.20;93.90
40023;DHT22;25713;-35.352;149.036;2024-01-30T13:16:37;23.20;94.00
40023;DHT22;25713;-35.352;149.036;2024-01-30T13:19:07;23.20;93.90
40023;DHT22;25713;-35.352;149.036;2024-01-30T13:21:36;23.10;93.90
40023;DHT22;25713;-35.352;149.036;2024-01-30T13:24:06;23.10;93.90
40023;DHT22;25713;-35.352;149.036;2024-01-30T13:26:36;23.10;94.00
40023;DHT22;25713;-35.352;149.036;2024-01-30T13:29:09;23.10;93.90
40023;DHT22;25713;-35.352;149.036;2024-01-30T13:31:39;23.10;94.00
40023;DHT22;25713;-35.352;149.036;2024-01-30T13:34:08;23.10;94.10
40023;DHT22;25713;-35.352;149.036;2024-01-30T13:36:38;23.10;94.00
40023;DHT22;25713;-35.352;149.036;2024-01-30T13:39:07;23.10;94.00
40023;DHT22;25713;-35.352;149.036;2024-01-30T13:41:36;23.10;94.00
40023;DHT22;25713;-35.352;149.036;2024-01-30T13:44:09;23.10;94.00
40023;DHT22;25713;-35.352;149.036;2024-01-30T13:46:39;23.10;94.10
40023;DHT22;25713;-35.352;149.036;2024-01-30T13:49:09;23.00;94.00
40023;DHT22;25713;-35.352;149.036;2024-01-30T13:51:38;23.00;94.10
40023;DHT22;25713;-35.352;149.036;2024-01-30T13:54:08;23.00;94.20
40023;DHT22;25713;-35.352;149.036;2024-01-30T13:56:37;23.00;94.20
40023;DHT22;25713;-35.352;149.036;2024-01-30T13:59:10;23.00;94.20
40023;DHT22;25713;-35.352;149.036;2024-01-30T14:01:40;23.00;94.20
40023;DHT22;25713;-35.352;149.036;2024-01-30T14:04:09;23.00;94.30
40023;DHT22;25713;-35.352;149.036;2024-01-30T14:06:39;23.00;94.20
40023;DHT22;25713;-35.352;149.036;2024-01-30T14:09:08;23.00;94.20
40023;DHT22;25713;-35.352;149.036;2024-01-30T14:11:38;23.00;94.30
40023;DHT22;25713;-35.352;149.036;2024-01-30T14:14:11;23.00;94.20
40023;DHT22;25713;-35.352;149.036;2024-01-30T14:16:40;23.00;94.60
40023;DHT22;25713;-35.352;149.036;2024-01-30T14:19:10;22.90;94.20
40023;DHT22;25713;-35.352;149.036;2024-01-30T14:21:39;23.00;94.30
40023;DHT22;25713;-35.352;149.036;2024-01-30T14:24:09;22.90;94.20
40023;DHT22;25713;-35.352;149.036;2024-01-30T14:26:38;22.90;94.30
40023;DHT22;25713;-35.352;149.036;2024-01-30T14:29:10;22.90;94.30
40023;DHT22;25713;-35.352;149.036;2024-01-30T14:31:39;22.90;94.30
40023;DHT22;25713;-35.352;149.036;2024-01-30T14:34:09;22.90;94.30
40023;DHT22;25713;-35.352;149.036;2024-01-30T14:36:39;22.90;94.30
40023;DHT22;25713;-35.352;149.036;2024-01-30T14:39:08;22.90;94.30
40023;DHT22;25713;-35.352;149.036;2024-01-30T14:41:38;22.90;94.40
40023;DHT22;25713;-35.352;149.036;2024-01-30T14:44:09;22.90;94.40
40023;DHT22;25713;-35.352;149.036;2024-01-30T15:46:58;22.50;94.90
40023;DHT22;25713;-35.352;149.036;2024-01-30T15:49:28;22.50;95.20
40023;DHT22;25713;-35.352;149.036;2024-01-30T15:51:58;22.50;95.30
40023;DHT22;25713;-35.352;149.036;2024-01-30T15:54:27;22.50;95.20
40023;DHT22;25713;-35.352;149.036;2024-01-30T15:56:57;22.50;95.10
40023;DHT22;25713;-35.352;149.036;2024-01-30T15:59:26;22.50;95.10
40023;DHT22;25713;-35.352;149.036;2024-01-30T16:01:58;22.50;95.10
40023;DHT22;25713;-35.352;149.036;2024-01-30T16:04:28;22.50;95.10
40023;DHT22;25713;-35.352;149.036;2024-01-30T16:06:57;22.50;95.10